sensor_id;sensor_type;location;lat;lon;timestamp;temperature;humidity
18894;DHT22;9579;49.488;8.226;2022-09-17T06:14:46;13.90;99.90
18894;DHT22;9579;49.488;8.226;2022-09-17T06:17:34;13.80;99.90
18894;DHT22;9579;49.488;8.226;2022-09-17T06:20:22;13.80;99.90
18894;DHT22;9579;49.488;8.226;2022-09-17T06:23:09;13.80;99.90
18894;DHT22;9579;49.488;8.226;2022-09-17T06:25:57;13.90;99.90
18894;DHT22;9579;49.488;8.226;2022-09-17T06:28:44;13.90;99.90
18894;DHT22;9579;49.488;8.226;2022-09-17T06:31:32;14.00;99.90
18894;DHT22;9579;49.488;8.226;2022-09-17T06:34:19;14.20;99.90
18894;DHT22;9579;49.488;8.226;2022-09-17T06:37:06;14.20;99.90
18894;DHT22;9579;49.488;8.226;2022-09-17T06:39:53;14.40;99.90
18894;DHT22;9579;49.488;8.226;2022-09-17T06:42:40;14.50;99.90
18894;DHT22;9579;49.488;8.226;2022-09-17T06:45:28;14.60;99.90
18894;DHT22;9579;49.488;8.226;2022-09-17T06:48:16;14.80;99.90
18894;DHT22;9579;49.488;8.226;2022-09-17T06:51:05;15.00;99.90
18894;DHT22;9579;49.488;8.226;2022-09-17T06:53:52;15.20;99.90
18894;DHT22;9579;49.488;8.226;2022-09-17T06:56:39;15.30;99.90
18894;DHT22;9579;49.488;8.226;2022-09-17T06:59:26;15.50;99.90
18894;DHT22;9579;49.488;8.226;2022-09-17T07:02:14;15.50;99.90
18894;DHT22;9579;49.488;8.226;2022-09-17T07:05:03;15.30;99.90
18894;DHT22;9579;49.488;8.226;2022-09-17T07:07:50;15.20;99.90
18894;DHT22;9579;49.488;8.226;2022-09-17T07:10:37;15.20;99.90
18894;DHT22;9579;49.488;8.226;2022-09-17T07:13:26;15.30;99.90
18894;DHT22;9579;49.488;8.226;2022-09-17T07:16:13;15.50;99.90
18894;DHT22;9579;49.488;8.226;2022-09-17T07:19:01;15.60;99.90
18894;DHT22;9579;49.488;8.226;2022-09-17T07:21:49;15.80;99.90
18894;DHT22;9579;49.488;8.226;2022-09-17T07:24:36;16.00;99.90
18894;DHT22;9579;49.488;8.226;2022-09-17T07:27:26;16.20;99.90
18894;DHT22;9579;49.488;8.226;2022-09-17T07:30:13;16.30;99.30
18894;DHT22;9579;49.488;8.226;2022-09-17T07:33:00;16.30;99.60
18894;DHT22;9579;49.488;8.226;2022-09-17T07:35:52;16.50;99.80
18894;DHT22;9579;49.488;8.226;2022-09-17T07:38:43;16.70;99.20
18894;DHT22;9579;49.488;8.226;2022-09-17T07:41:30;16.70;98.90
18894;DHT22;9579;49.488;8.226;2022-09-17T07:44:19;16.70;99.20
18894;DHT22;9579;49.488;8.226;2022-09-17T07:47:06;16.50;98.80
18894;DHT22;9579;49.488;8.226;2022-09-17T07:49:54;16.20;99.20
18894;DHT22;9579;49.488;8.226;2022-09-17T07:52:44;15.90;99.90
18894;DHT22;9579;49.488;8.226;2022-09-17T07:55:33;16.00;99.70
18894;DHT22;9579;49.488;8.226;2022-09-17T07:58:20;16.10;99.80
18894;DHT22;9579;49.488;8.226;2022-09-17T08:01:09;16.30;99.90
18894;DHT22;9579;49.488;8.226;2022-09-17T08:03:56;16.60;99.80
18894;DHT22;9579;49.488;8.226;2022-09-17T08:06:43;16.80;99.00
18894;DHT22;9579;49.488;8.226;2022-09-17T08:09:33;16.80;99.10
18894;DHT22;9579;49.488;8.226;2022-09-17T08:12:21;16.70;99.60
18894;DHT22;9579;49.488;8.226;2022-09-17T08:15:09;16.90;98.80
18894;DHT22;9579;49.488;8.226;2022-09-17T08:17:56;17.10;98.10
18894;DHT22;9579;49.488;8.226;2022-09-17T08:20:43;17.30;98.30
18894;DHT22;9579;49.488;8.226;2022-09-17T08:23:30;17.50;98.00
18894;DHT22;9579;49.488;8.226;2022-09-17T08:26:21;17.80;97.60
18894;DHT22;9579;49.488;8.226;2022-09-17T08:29:09;18.00;97.80
18894;DHT22;9579;49.488;8.226;2022-09-17T08:31:57;18.40;96.70
18894;DHT22;9579;49.488;8.226;2022-09-17T08:34:44;18.70;96.00
18894;DHT22;9579;49.488;8.226;2022-09-17T08:37:31;18.80;95.00
18894;DHT22;9579;49.488;8.226;2022-09-17T08:40:20;18.80;95.40
18894;DHT22;9579;49.488;8.226;2022-09-17T08:43:10;18.90;95.90
18894;DHT22;9579;49.488;8.226;2022-09-17T08:46:03;19.10;95.80
18894;DHT22;9579;49.488;8.226;2022-09-17T08:48:55;19.10;94.40
18894;DHT22;9579;49.488;8.226;2022-09-17T08:51:55;19.20;94.30
18894;DHT22;9579;49.488;8.226;2022-09-17T08:54:51;19.10;94.50
18894;DHT22;9579;49.488;8.226;2022-09-17T08:57:46;19.20;95.70
18894;DHT22;9579;49.488;8.226;2022-09-17T09:00:40;19.30;95.20
18894;DHT22;9579;49.488;8.226;2022-09-17T09:03:42;19.50;94.80
18894;DHT22;9579;49.488;8.226;2022-09-17T09:06:34;19.50;94.90
18894;DHT22;9579;49.488;8.226;2022-09-17T09:09:24;19.30;93.90
18894;DHT22;9579;49.488;8.226;2022-09-17T09:12:25;19.20;93.40
18894;DHT22;9579;49.488;8.226;2022-09-17T09:15:32;19.00;94.20
18894;DHT22;9579;49.488;8.226;2022-09-17T09:18:25;19.30;94.10
18894;DHT22;9579;49.488;8.226;2022-09-17T09:21:22;19.70;94.30
18894;DHT22;9579;49.488;8.226;2022-09-17T09:24:21;20.20;92.60
18894;DHT22;9579;49.488;8.226;2022-09-17T09:27:16;20.30;91.00
18894;DHT22;9579;49.488;8.226;2022-09-17T09:30:07;20.00;90.50
18894;DHT22;9579;49.488;8.226;2022-09-17T09:32:59;19.50;91.90
18894;DHT22;9579;49.488;8.226;2022-09-17T09:35:47;19.40;92.40
18894;DHT22;9579;49.488;8.226;2022-09-17T09:38:41;19.40;91.20
18894;DHT22;9579;49.488;8.226;2022-09-17T09:41:32;19.60;90.80
18894;DHT22;9579;49.488;8.226;2022-09-17T09:44:23;19.80;90.40
18894;DHT22;9579;49.488;8.226;2022-09-17T09:47:23;19.90;90.80
18894;DHT22;9579;49.488;8.226;2022-09-17T09:50:30;20.20;88.70
18894;DHT22;9579;49.488;8.226;2022-09-17T09:53:27;20.00;90.90
18894;DHT22;9579;49.488;8.226;2022-09-17T09:56:33;19.90;89.90
18894;DHT22;9579;49.488;8.226;2022-09-17T09:59:23;20.20;90.50
18894;DHT22;9579;49.488;8.226;2022-09-17T10:02:15;20.50;86.30
18894;DHT22;9579;49.488;8.226;2022-09-17T10:05:07;20.60;88.00
18894;DHT22;9579;49.488;8.226;2022-09-17T10:07:54;20.90;88.40
18894;DHT22;9579;49.488;8.226;2022-09-17T10:10:54;21.10;86.60
18894;DHT22;9579;49.488;8.226;2022-09-17T10:13:42;21.10;84.20
18894;DHT22;9579;49.488;8.226;2022-09-17T10:16:29;20.70;85.50
18894;DHT22;9579;49.488;8.226;2022-09-17T10:19:20;20.30;86.10
18894;DHT22;9579;49.488;8.226;2022-09-17T10:22:24;20.20;88.40
18894;DHT22;9579;49.488;8.226;2022-09-17T10:25:27;20.00;85.60
18894;DHT22;9579;49.488;8.226;2022-09-17T10:28:33;20.00;88.50
18894;DHT22;9579;49.488;8.226;2022-09-17T10:31:22;20.00;90.30
18894;DHT22;9579;49.488;8.226;2022-09-17T10:34:18;20.00;88.80
18894;DHT22;9579;49.488;8.226;2022-09-17T10:37:32;19.90;88.90
18894;DHT22;9579;49.488;8.226;2022-09-17T10:40:28;19.70;87.30
18894;DHT22;9579;49.488;8.226;2022-09-17T10:43:21;19.30;90.00
18894;DHT22;9579;49.488;8.226;2022-09-17T10:46:12;18.80;90.10
18894;DHT22;9579;49.488;8.226;2022-09-17T10:49:08;18.40;91.50
18894;DHT22;9579;49.488;8.226;2022-09-17T10:52:04;18.20;90.60
18894;DHT22;9579;49.488;8.226;2022-09-17T10:55:06;18.00;90.60
18894;DHT22;9579;49.488;8.226;2022-09-17T10:58:10;17.90;90.10
18894;DHT22;9579;49.488;8.226;2022-09-17T11:01:09;17.70;90.30
18894;DHT22;9579;49.488;8.226;2022-09-17T11:04:20;17.70;91.30
18894;DHT22;9579;49.488;8.226;2022-09-17T11:07:20;17.70;91.20
18894;DHT22;9579;49.488;8.226;2022-09-17T11:10:16;17.70;91.30
18894;DHT22;9579;49.488;8.226;2022-09-17T11:13:15;17.50;91.70
18894;DHT22;9579;49.488;8.226;2022-09-17T11:16:13;17.70;92.40
18894;DHT22;9579;49.488;8.226;2022-09-17T11:19:13;17.70;92.70
18894;DHT22;9579;49.488;8.226;2022-09-17T11:22:07;17.90;92.10
18894;DHT22;9579;49.488;8.226;2022-09-17T11:28:20;18.20;91.10
18894;DHT22;9579;49.488;8.226;2022-09-17T11:31:20;18.20;91.60
18894;DHT22;9579;49.488;8.226;2022-09-17T11:34:22;18.20;91.50
18894;DHT22;9579;49.488;8.226;2022-09-17T11:37:18;18.20;91.90
18894;DHT22;9579;49.488;8.226;2022-09-17T11:40:12;18.30;91.40
18894;DHT22;9579;49.488;8.226;2022-09-17T11:43:06;18.40;91.50
18894;DHT22;9579;49.488;8.226;2022-09-17T11:46:00;18.40;91.30
18894;DHT22;9579;49.488;8.226;2022-09-17T11:48:56;18.40;92.00
18894;DHT22;9579;49.488;8.226;2022-09-17T11:51:47;18.40;91.40
18894;DHT22;9579;49.488;8.226;2022-09-17T11:54:39;18.30;91.60
18894;DHT22;9579;49.488;8.226;2022-09-17T11:57:35;18.20;92.40
18894;DHT22;9579;49.488;8.226;2022-09-17T12:00:27;18.20;90.70
18894;DHT22;9579;49.488;8.226;2022-09-17T12:03:22;18.50;91.30
18894;DHT22;9579;49.488;8.226;2022-09-17T12:06:14;18.70;90.10
18894;DHT22;9579;49.488;8.226;2022-09-17T12:09:05;18.80;90.10
18894;DHT22;9579;49.488;8.226;2022-09-17T12:11:59;18.90;90.60
18894;DHT22;9579;49.488;8.226;2022-09-17T12:14:50;19.40;90.90
18894;DHT22;9579;49.488;8.226;2022-09-17T12:17:45;19.80;88.10
18894;DHT22;9579;49.488;8.226;2022-09-17T12:20:36;19.80;87.90
18894;DHT22;9579;49.488;8.226;2022-09-17T12:23:31;19.80;88.10
18894;DHT22;9579;49.488;8.226;2022-09-17T12:26:30;19.60;87.90
18894;DHT22;9579;49.488;8.226;2022-09-17T12:29:33;19.60;89.30
18894;DHT22;9579;49.488;8.226;2022-09-17T12:36:01;20.30;86.10
18894;DHT22;9579;49.488;8.226;2022-09-17T12:39:26;20.60;87.50
18894;DHT22;9579;49.488;8.226;2022-09-17T12:42:32;20.90;85.00
18894;DHT22;9579;49.488;8.226;2022-09-17T12:45:37;21.40;83.70
18894;DHT22;9579;49.488;8.226;2022-09-17T12:48:39;21.60;83.60
18894;DHT22;9579;49.488;8.226;2022-09-17T12:51:45;21.90;79.30
18894;DHT22;9579;49.488;8.226;2022-09-17T12:54:49;22.00;77.20
18894;DHT22;9579;49.488;8.226;2022-09-17T12:57:41;21.90;78.10
18894;DHT22;9579;49.488;8.226;2022-09-17T13:00:37;21.90;78.80
18894;DHT22;9579;49.488;8.226;2022-09-17T13:03:29;22.00;79.30
18894;DHT22;9579;49.488;8.226;2022-09-17T13:06:56;22.50;82.90
18894;DHT22;9579;49.488;8.226;2022-09-17T13:10:11;23.00;77.80
18894;DHT22;9579;49.488;8.226;2022-09-17T13:13:13;23.00;76.70
18894;DHT22;9579;49.488;8.226;2022-09-17T13:16:09;22.70;77.00
18894;DHT22;9579;49.488;8.226;2022-09-17T13:19:03;22.80;79.20
18894;DHT22;9579;49.488;8.226;2022-09-17T13:21:51;23.10;78.30
18894;DHT22;9579;49.488;8.226;2022-09-17T13:24:42;23.60;77.50
18894;DHT22;9579;49.488;8.226;2022-09-17T13:27:32;24.00;75.30
18894;DHT22;9579;49.488;8.226;2022-09-17T13:30:20;24.20;75.50
18894;DHT22;9579;49.488;8.226;2022-09-17T13:33:07;24.40;73.00
18894;DHT22;9579;49.488;8.226;2022-09-17T13:35:55;23.90;73.90
18894;DHT22;9579;49.488;8.226;2022-09-17T13:38:42;23.70;75.00
18894;DHT22;9579;49.488;8.226;2022-09-17T13:41:34;23.70;74.20
18894;DHT22;9579;49.488;8.226;2022-09-17T13:44:22;23.80;73.40
18894;DHT22;9579;49.488;8.226;2022-09-17T13:47:18;23.70;76.50
18894;DHT22;9579;49.488;8.226;2022-09-17T13:50:09;23.60;73.60
18894;DHT22;9579;49.488;8.226;2022-09-17T13:52:57;24.00;73.30
18894;DHT22;9579;49.488;8.226;2022-09-17T13:55:49;24.60;72.10
18894;DHT22;9579;49.488;8.226;2022-09-17T13:58:37;24.80;70.50
18894;DHT22;9579;49.488;8.226;2022-09-17T14:01:56;25.30;70.40
18894;DHT22;9579;49.488;8.226;2022-09-17T14:04:47;25.60;68.40
18894;DHT22;9579;49.488;8.226;2022-09-17T14:07:44;25.40;68.00
18894;DHT22;9579;49.488;8.226;2022-09-17T14:10:40;25.20;68.40
18894;DHT22;9579;49.488;8.226;2022-09-17T14:13:43;25.40;69.70
18894;DHT22;9579;49.488;8.226;2022-09-17T14:16:33;25.60;69.10
18894;DHT22;9579;49.488;8.226;2022-09-17T14:19:34;25.80;66.80
18894;DHT22;9579;49.488;8.226;2022-09-17T14:22:28;25.80;67.20
18894;DHT22;9579;49.488;8.226;2022-09-17T14:25:18;26.20;67.60
18894;DHT22;9579;49.488;8.226;2022-09-17T14:28:13;26.20;65.30
18894;DHT22;9579;49.488;8.226;2022-09-17T14:31:10;26.70;62.10
18894;DHT22;9579;49.488;8.226;2022-09-17T14:34:01;26.80;64.10
18894;DHT22;9579;49.488;8.226;2022-09-17T14:36:50;26.90;62.20
18894;DHT22;9579;49.488;8.226;2022-09-17T14:39:38;26.20;61.80
18894;DHT22;9579;49.488;8.226;2022-09-17T14:42:31;24.70;64.60
18894;DHT22;9579;49.488;8.226;2022-09-17T14:45:23;23.50;68.00
18894;DHT22;9579;49.488;8.226;2022-09-17T14:48:33;22.60;69.20
18894;DHT22;9579;49.488;8.226;2022-09-17T14:51:27;21.90;72.90
18894;DHT22;9579;49.488;8.226;2022-09-17T14:54:23;21.20;76.10
18894;DHT22;9579;49.488;8.226;2022-09-17T14:57:20;21.00;75.40
18894;DHT22;9579;49.488;8.226;2022-09-17T15:00:19;20.80;77.00
18894;DHT22;9579;49.488;8.226;2022-09-17T15:03:20;20.30;78.10
18894;DHT22;9579;49.488;8.226;2022-09-17T15:06:19;19.90;82.40
18894;DHT22;9579;49.488;8.226;2022-09-17T15:09:13;19.70;84.30
18894;DHT22;9579;49.488;8.226;2022-09-17T15:12:03;19.30;88.30
18894;DHT22;9579;49.488;8.226;2022-09-17T15:14:51;19.20;91.50
18894;DHT22;9579;49.488;8.226;2022-09-17T15:17:40;19.00;92.10
18894;DHT22;9579;49.488;8.226;2022-09-17T15:20:29;19.00;92.40
18894;DHT22;9579;49.488;8.226;2022-09-17T15:23:22;19.00;92.20
18894;DHT22;9579;49.488;8.226;2022-09-17T15:26:10;19.10;90.70
18894;DHT22;9579;49.488;8.226;2022-09-17T15:28:58;19.00;90.80
18894;DHT22;9579;49.488;8.226;2022-09-17T15:31:46;18.90;89.20
18894;DHT22;9579;49.488;8.226;2022-09-17T15:34:33;18.90;87.80
18894;DHT22;9579;49.488;8.226;2022-09-17T15:37:24;18.80;86.50
18894;DHT22;9579;49.488;8.226;2022-09-17T15:40:23;18.80;86.70
18894;DHT22;9579;49.488;8.226;2022-09-17T15:43:16;18.80;87.10
18894;DHT22;9579;49.488;8.226;2022-09-17T15:46:20;18.60;87.10
18894;DHT22;9579;49.488;8.226;2022-09-17T15:49:26;18.60;88.00
18894;DHT22;9579;49.488;8.226;2022-09-17T15:52:26;18.50;88.80
18894;DHT22;9579;49.488;8.226;2022-09-17T15:55:33;18.50;88.80
18894;DHT22;9579;49.488;8.226;2022-09-17T15:58:24;18.50;89.50
18894;DHT22;9579;49.488;8.226;2022-09-17T16:04:34;18.40;90.60
18894;DHT22;9579;49.488;8.226;2022-09-17T16:07:29;18.40;90.20
18894;DHT22;9579;49.488;8.226;2022-09-17T16:10:16;18.50;90.30
18894;DHT22;9579;49.488;8.226;2022-09-17T16:13:05;18.40;90.20
18894;DHT22;9579;49.488;8.226;2022-09-17T16:15:52;18.50;90.00
18894;DHT22;9579;49.488;8.226;2022-09-17T16:18:39;18.50;90.50
18894;DHT22;9579;49.488;8.226;2022-09-17T16:21:26;18.50;90.30
18894;DHT22;9579;49.488;8.226;2022-09-17T16:24:13;18.40;90.00
18894;DHT22;9579;49.488;8.226;2022-09-17T16:27:00;18.40;90.00
18894;DHT22;9579;49.488;8.226;2022-09-17T16:29:50;18.30;90.20
18894;DHT22;9579;49.488;8.226;2022-09-17T16:32:37;18.30;90.80
18894;DHT22;9579;49.488;8.226;2022-09-17T16:35:25;18.30;90.60
18894;DHT22;9579;49.488;8.226;2022-09-17T16:38:12;18.30;91.00
18894;DHT22;9579;49.488;8.226;2022-09-17T16:40:59;18.20;91.20
18894;DHT22;9579;49.488;8.226;2022-09-17T16:43:46;18.00;91.70
18894;DHT22;9579;49.488;8.226;2022-09-17T16:46:34;18.00;92.10
18894;DHT22;9579;49.488;8.226;2022-09-17T16:49:21;17.80;93.10
18894;DHT22;9579;49.488;8.226;2022-09-17T16:52:08;17.60;94.10
18894;DHT22;9579;49.488;8.226;2022-09-17T16:54:55;17.40;94.00
18894;DHT22;9579;49.488;8.226;2022-09-17T16:57:42;17.30;94.00
18894;DHT22;9579;49.488;8.226;2022-09-17T17:00:30;17.30;94.20
18894;DHT22;9579;49.488;8.226;2022-09-17T17:03:18;17.10;94.80
18894;DHT22;9579;49.488;8.226;2022-09-17T17:06:13;16.90;95.20
18894;DHT22;9579;49.488;8.226;2022-09-17T17:09:02;17.00;95.30
18894;DHT22;9579;49.488;8.226;2022-09-17T17:11:50;17.00;95.10
18894;DHT22;9579;49.488;8.226;2022-09-17T17:14:38;17.00;95.50
18894;DHT22;9579;49.488;8.226;2022-09-17T17:17:25;16.70;96.00
18894;DHT22;9579;49.488;8.226;2022-09-17T17:20:14;16.70;96.00
18894;DHT22;9579;49.488;8.226;2022-09-17T17:23:01;16.70;96.20
18894;DHT22;9579;49.488;8.226;2022-09-17T17:25:50;16.70;96.20
18894;DHT22;9579;49.488;8.226;2022-09-17T17:28:38;16.60;96.10
18894;DHT22;9579;49.488;8.226;2022-09-17T17:31:25;16.40;95.90
18894;DHT22;9579;49.488;8.226;2022-09-17T17:34:13;16.30;95.80
18894;DHT22;9579;49.488;8.226;2022-09-17T17:37:02;16.30;96.00
18894;DHT22;9579;49.488;8.226;2022-09-17T17:39:53;16.20;95.90
18894;DHT22;9579;49.488;8.226;2022-09-17T17:42:41;16.20;95.90
18894;DHT22;9579;49.488;8.226;2022-09-17T17:45:28;16.10;95.70
18894;DHT22;9579;49.488;8.226;2022-09-17T17:48:15;16.00;95.60
18894;DHT22;9579;49.488;8.226;2022-09-17T17:51:05;15.90;95.10
18894;DHT22;9579;49.488;8.226;2022-09-17T17:53:58;15.80;95.10
18894;DHT22;9579;49.488;8.226;2022-09-17T17:56:47;15.70;95.10
18894;DHT22;9579;49.488;8.226;2022-09-17T17:59:34;15.70;95.10
18894;DHT22;9579;49.488;8.226;2022-09-17T18:02:22;15.70;95.00
18894;DHT22;9579;49.488;8.226;2022-09-17T18:05:10;15.60;95.40
18894;DHT22;9579;49.488;8.226;2022-09-17T18:07:57;15.50;95.80
18894;DHT22;9579;49.488;8.226;2022-09-17T18:10:56;15.50;96.20
18894;DHT22;9579;49.488;8.226;2022-09-17T18:13:45;15.60;96.10
18894;DHT22;9579;49.488;8.226;2022-09-17T18:20:04;15.60;96.10
18894;DHT22;9579;49.488;8.226;2022-09-17T18:22:52;15.60;96.00
18894;DHT22;9579;49.488;8.226;2022-09-17T18:25:55;15.70;96.10
18894;DHT22;9579;49.488;8.226;2022-09-17T18:28:45;15.60;96.30
18894;DHT22;9579;49.488;8.226;2022-09-17T18:31:45;15.60;96.20
18894;DHT22;9579;49.488;8.226;2022-09-17T18:35:00;15.60;96.10
18894;DHT22;9579;49.488;8.226;2022-09-17T18:37:48;15.50;96.10
18894;DHT22;9579;49.488;8.226;2022-09-17T18:40:35;15.50;96.50
18894;DHT22;9579;49.488;8.226;2022-09-17T18:43:23;15.50;96.50
18894;DHT22;9579;49.488;8.226;2022-09-17T18:46:10;15.50;96.40
18894;DHT22;9579;49.488;8.226;2022-09-17T18:48:58;15.40;96.20
18894;DHT22;9579;49.488;8.226;2022-09-17T18:51:45;15.40;96.80
18894;DHT22;9579;49.488;8.226;2022-09-17T18:54:32;15.40;96.60
18894;DHT22;9579;49.488;8.226;2022-09-17T18:57:19;15.50;97.30
18894;DHT22;9579;49.488;8.226;2022-09-17T19:00:09;15.50;97.20
18894;DHT22;9579;49.488;8.226;2022-09-17T19:02:57;15.50;97.20
18894;DHT22;9579;49.488;8.226;2022-09-17T19:05:44;15.50;97.30
18894;DHT22;9579;49.488;8.226;2022-09-17T19:08:58;15.60;97.60
18894;DHT22;9579;49.488;8.226;2022-09-17T19:18:20;15.70;97.70
18894;DHT22;9579;49.488;8.226;2022-09-17T19:21:10;15.60;97.70
18894;DHT22;9579;49.488;8.226;2022-09-17T19:23:57;15.60;97.90
18894;DHT22;9579;49.488;8.226;2022-09-17T19:26:44;15.60;98.00
18894;DHT22;9579;49.488;8.226;2022-09-17T19:29:32;15.70;98.20
18894;DHT22;9579;49.488;8.226;2022-09-17T19:32:19;15.80;98.20
18894;DHT22;9579;49.488;8.226;2022-09-17T19:35:08;15.80;98.00
18894;DHT22;9579;49.488;8.226;2022-09-17T19:37:56;15.90;98.00
18894;DHT22;9579;49.488;8.226;2022-09-17T19:40:54;15.80;98.00
18894;DHT22;9579;49.488;8.226;2022-09-17T19:43:41;15.80;98.10
18894;DHT22;9579;49.488;8.226;2022-09-17T19:46:29;15.80;98.40
18894;DHT22;9579;49.488;8.226;2022-09-17T19:49:17;15.70;98.30
18894;DHT22;9579;49.488;8.226;2022-09-17T19:52:05;15.60;98.10
18894;DHT22;9579;49.488;8.226;2022-09-17T19:54:56;15.50;98.10
18894;DHT22;9579;49.488;8.226;2022-09-17T19:57:43;15.40;98.20
18894;DHT22;9579;49.488;8.226;2022-09-17T20:00:30;15.40;98.30
18894;DHT22;9579;49.488;8.226;2022-09-17T20:03:19;15.30;98.20
18894;DHT22;9579;49.488;8.226;2022-09-17T20:06:08;15.30;98.20
18894;DHT22;9579;49.488;8.226;2022-09-17T20:08:59;15.30;98.20
18894;DHT22;9579;49.488;8.226;2022-09-17T20:11:46;15.30;98.50
18894;DHT22;9579;49.488;8.226;2022-09-17T20:14:33;15.20;98.50
18894;DHT22;9579;49.488;8.226;2022-09-17T20:17:20;15.30;98.30
18894;DHT22;9579;49.488;8.226;2022-09-17T20:20:08;15.20;98.30
18894;DHT22;9579;49.488;8.226;2022-09-17T20:22:55;15.10;98.30
18894;DHT22;9579;49.488;8.226;2022-09-17T20:25:50;15.10;97.90
18894;DHT22;9579;49.488;8.226;2022-09-17T20:28:37;15.00;98.10
18894;DHT22;9579;49.488;8.226;2022-09-17T20:31:26;14.90;98.10
18894;DHT22;9579;49.488;8.226;2022-09-17T20:34:13;14.80;98.30
18894;DHT22;9579;49.488;8.226;2022-09-17T20:37:00;14.70;98.50
18894;DHT22;9579;49.488;8.226;2022-09-17T20:39:47;14.70;98.70
18894;DHT22;9579;49.488;8.226;2022-09-17T20:42:35;14.50;99.00
18894;DHT22;9579;49.488;8.226;2022-09-17T20:45:37;14.50;99.20
18894;DHT22;9579;49.488;8.226;2022-09-17T20:48:43;14.60;99.20
18894;DHT22;9579;49.488;8.226;2022-09-17T20:51:30;14.60;99.20
18894;DHT22;9579;49.488;8.226;2022-09-17T20:54:25;14.70;99.00
18894;DHT22;9579;49.488;8.226;2022-09-17T20:57:12;14.60;99.10
18894;DHT22;9579;49.488;8.226;2022-09-17T21:00:35;14.60;99.10
18894;DHT22;9579;49.488;8.226;2022-09-17T21:03:22;14.60;99.30
18894;DHT22;9579;49.488;8.226;2022-09-17T21:06:14;14.50;99.50
18894;DHT22;9579;49.488;8.226;2022-09-17T21:09:02;14.40;99.30
18894;DHT22;9579;49.488;8.226;2022-09-17T21:11:50;14.50;99.30
18894;DHT22;9579;49.488;8.226;2022-09-17T21:14:37;14.40;99.50
18894;DHT22;9579;49.488;8.226;2022-09-17T21:17:26;14.30;99.40
18894;DHT22;9579;49.488;8.226;2022-09-17T21:20:13;14.30;99.70
18894;DHT22;9579;49.488;8.226;2022-09-17T21:23:00;14.30;99.60
18894;DHT22;9579;49.488;8.226;2022-09-17T21:25:47;14.30;99.60
18894;DHT22;9579;49.488;8.226;2022-09-17T21:28:35;14.30;99.70
18894;DHT22;9579;49.488;8.226;2022-09-17T21:31:23;14.30;99.60
18894;DHT22;9579;49.488;8.226;2022-09-17T21:34:12;14.30;99.60
18894;DHT22;9579;49.488;8.226;2022-09-17T21:37:02;14.40;99.60
18894;DHT22;9579;49.488;8.226;2022-09-17T21:39:50;14.30;99.40
18894;DHT22;9579;49.488;8.226;2022-09-17T21:42:37;14.40;99.90
18894;DHT22;9579;49.488;8.226;2022-09-17T21:45:24;14.40;99.60
18894;DHT22;9579;49.488;8.226;2022-09-17T21:48:12;14.40;99.40
18894;DHT22;9579;49.488;8.226;2022-09-17T21:51:06;14.40;99.30
18894;DHT22;9579;49.488;8.226;2022-09-17T21:53:55;14.40;99.40
18894;DHT22;9579;49.488;8.226;2022-09-17T21:56:45;14.40;99.40
18894;DHT22;9579;49.488;8.226;2022-09-17T21:59:35;14.30;99.40
18894;DHT22;9579;49.488;8.226;2022-09-17T22:02:22;14.30;99.50
18894;DHT22;9579;49.488;8.226;2022-09-17T22:05:16;14.30;99.70
18894;DHT22;9579;49.488;8.226;2022-09-17T22:08:04;14.30;99.80
18894;DHT22;9579;49.488;8.226;2022-09-17T22:10:51;14.20;99.80
18894;DHT22;9579;49.488;8.226;2022-09-17T22:13:39;14.20;99.90
18894;DHT22;9579;49.488;8.226;2022-09-17T22:16:27;14.20;99.90
18894;DHT22;9579;49.488;8.226;2022-09-17T22:19:17;14.20;99.90
18894;DHT22;9579;49.488;8.226;2022-09-17T22:22:04;14.10;99.90
18894;DHT22;9579;49.488;8.226;2022-09-17T22:24:52;14.10;99.90
18894;DHT22;9579;49.488;8.226;2022-09-17T22:27:39;14.20;99.90
18894;DHT22;9579;49.488;8.226;2022-09-17T22:30:26;14.10;99.90
18894;DHT22;9579;49.488;8.226;2022-09-17T22:33:13;14.20;99.90
18894;DHT22;9579;49.488;8.226;2022-09-17T22:36:02;14.20;99.90
18894;DHT22;9579;49.488;8.226;2022-09-17T22:38:51;14.20;99.90
18894;DHT22;9579;49.488;8.226;2022-09-17T22:41:40;14.20;99.90
18894;DHT22;9579;49.488;8.226;2022-09-17T22:44:30;14.30;99.90
18894;DHT22;9579;49.488;8.226;2022-09-17T22:47:17;14.30;99.80
18894;DHT22;9579;49.488;8.226;2022-09-17T22:50:05;14.20;99.90
18894;DHT22;9579;49.488;8.226;2022-09-17T22:52:52;14.20;99.90
18894;DHT22;9579;49.488;8.226;2022-09-17T22:55:39;14.30;99.90
18894;DHT22;9579;49.488;8.226;2022-09-17T22:58:27;14.30;99.90
18894;DHT22;9579;49.488;8.226;2022-09-17T23:01:17;14.30;99.90
18894;DHT22;9579;49.488;8.226;2022-09-17T23:04:04;14.30;99.90
18894;DHT22;9579;49.488;8.226;2022-09-17T23:06:51;14.20;99.90
18894;DHT22;9579;49.488;8.226;2022-09-17T23:09:38;14.30;99.90
18894;DHT22;9579;49.488;8.226;2022-09-17T23:12:25;14.20;99.90
18894;DHT22;9579;49.488;8.226;2022-09-17T23:15:14;14.20;99.90
18894;DHT22;9579;49.488;8.226;2022-09-17T23:18:01;14.20;99.90
18894;DHT22;9579;49.488;8.226;2022-09-17T23:20:55;14.20;99.90
18894;DHT22;9579;49.488;8.226;2022-09-17T23:23:44;14.20;99.90
18894;DHT22;9579;49.488;8.226;2022-09-17T23:26:32;14.20;99.90
18894;DHT22;9579;49.488;8.226;2022-09-17T23:29:19;14.30;99.90
18894;DHT22;9579;49.488;8.226;2022-09-17T23:32:07;14.30;99.90
18894;DHT22;9579;49.488;8.226;2022-09-17T23:34:54;14.40;99.90
18894;DHT22;9579;49.488;8.226;2022-09-17T23:37:41;14.40;99.90
18894;DHT22;9579;49.488;8.226;2022-09-17T23:40:28;14.30;99.90
18894;DHT22;9579;49.488;8.226;2022-09-17T23:43:15;14.30;99.90
18894;DHT22;9579;49.488;8.226;2022-09-17T23:46:04;14.20;99.90
18894;DHT22;9579;49.488;8.226;2022-09-17T23:48:53;14.30;99.90
18894;DHT22;9579;49.488;8.226;2022-09-17T23:51:40;14.40;99.90
18894;DHT22;9579;49.488;8.226;2022-09-17T23:54:28;14.30;99.90
18894;DHT22;9579;49.488;8.226;2022-09-17T23:57:17;14.40;99.90
